Time;durP1;ratioP1;P1;durP2;ratioP2;P2;SDS_P1;SDS_P2;PMS_P1;PMS_P2;Temp;Humidity;BMP_temperature;BMP_pressure;BME280_temperature;BME280_humidity;BME280_pressure;Samples;Min_cycle;Max_cycle;Signal;HPM_P1;HPM_P2
2022/11/21 00:00:15;;;;;;;128.07;48.60;;;;;;;-4.99;100.00;99648.53;5123435;28;20035;-80
2022/11/21 00:02:40;;;;;;;117.10;44.03;;;;;;;-4.97;100.00;99651.72;5128391;28;20036;-80
2022/11/21 00:05:06;;;;;;;119.57;45.85;;;;;;;-4.93;100.00;99644.13;5105289;28;20392;-80
2022/11/21 00:07:31;;;;;;;143.15;51.65;;;;;;;-4.89;100.00;99644.91;5120356;28;20046;-81
2022/11/21 00:09:57;;;;;;;127.57;45.50;;;;;;;-4.88;100.00;99643.72;5100764;28;20027;-80
2022/11/21 00:12:22;;;;;;;120.35;49.88;;;;;;;-4.87;100.00;99639.75;5121341;28;20100;-81
2022/11/21 00:14:47;;;;;;;122.03;46.25;;;;;;;-4.92;100.00;99640.94;5130821;28;20031;-80
2022/11/21 00:17:13;;;;;;;107.57;43.55;;;;;;;-4.97;100.00;99635.00;5133005;28;20030;-80
2022/11/21 00:19:38;;;;;;;99.35;40.25;;;;;;;-5.00;100.00;99636.59;5131649;28;20050;-80
2022/11/21 00:22:04;;;;;;;108.50;40.70;;;;;;;-5.06;100.00;99633.44;5131772;28;20035;-79
2022/11/21 00:24:29;;;;;;;90.80;36.72;;;;;;;-5.00;100.00;99631.03;5096293;28;20057;-80
2022/11/21 00:26:55;;;;;;;93.93;34.55;;;;;;;-5.09;100.00;99611.97;5110856;28;20065;-78
2022/11/21 00:29:20;;;;;;;99.88;37.83;;;;;;;-5.06;100.00;99632.66;5126573;28;20031;-80
2022/11/21 00:31:45;;;;;;;94.10;33.92;;;;;;;-5.02;100.00;99641.00;5106588;28;20111;-80
2022/11/21 00:34:11;;;;;;;88.78;34.40;;;;;;;-5.07;100.00;99631.06;5122954;28;20384;-79
2022/11/21 00:36:36;;;;;;;95.82;34.80;;;;;;;-5.01;100.00;99623.09;5120770;28;20030;-79
2022/11/21 00:39:01;;;;;;;87.45;34.67;;;;;;;-5.01;100.00;99626.66;5105903;28;20024;-80
2022/11/21 00:41:27;;;;;;;90.10;32.17;;;;;;;-4.94;100.00;99623.84;5124893;28;20027;-79
2022/11/21 00:43:52;;;;;;;76.22;31.00;;;;;;;-4.85;100.00;99617.81;5092851;28;20024;-79
2022/11/21 00:46:17;;;;;;;90.20;33.20;;;;;;;-4.77;100.00;99613.81;5128857;28;20024;-80
2022/11/21 00:48:43;;;;;;;79.30;32.10;;;;;;;-4.67;100.00;99616.56;5094658;28;20095;-80
2022/11/21 00:51:08;;;;;;;77.43;32.45;;;;;;;-4.52;100.00;99627.63;5094940;28;20019;-79
2022/11/21 00:53:34;;;;;;;81.32;33.60;;;;;;;-4.47;100.00;99614.03;5132218;28;20027;-79
2022/11/21 00:55:59;;;;;;;84.78;32.97;;;;;;;-4.38;100.00;99606.00;5130132;28;20372;-79
2022/11/21 00:58:25;;;;;;;87.57;32.80;;;;;;;-4.31;100.00;99603.16;5127382;28;20091;-80
2022/11/21 01:00:51;;;;;;;77.93;32.88;;;;;;;-4.19;100.00;99613.03;5109098;28;20032;-80
2022/11/21 01:03:16;;;;;;;77.78;31.42;;;;;;;-4.07;100.00;99612.53;5123986;28;20097;-80
2022/11/21 01:05:44;;;;;;;80.18;31.65;;;;;;;-3.93;100.00;99600.47;5115662;28;20035;-78
2022/11/21 01:08:10;;;;;;;82.05;31.52;;;;;;;-3.91;100.00;99593.28;5129164;28;20035;-81
2022/11/21 01:10:35;;;;;;;74.45;31.45;;;;;;;-3.89;100.00;99590.06;5115366;28;20073;-80
2022/11/21 01:13:02;;;;;;;76.53;30.83;;;;;;;-3.83;100.00;99580.06;5114032;28;20023;-81
2022/11/21 01:15:28;;;;;;;71.30;31.45;;;;;;;-3.79;100.00;99566.84;5114254;28;20023;-81
2022/11/21 01:17:53;;;;;;;76.93;32.55;;;;;;;-3.76;100.00;99560.44;5113926;28;20178;-81
2022/11/21 01:20:18;;;;;;;83.00;29.73;;;;;;;-3.71;100.00;99565.56;5113889;28;20030;-81
2022/11/21 01:22:44;;;;;;;70.53;28.88;;;;;;;-3.68;100.00;99552.81;5095672;28;20387;-81
2022/11/21 01:25:09;;;;;;;69.90;29.27;;;;;;;-3.66;100.00;99545.59;5114029;28;20031;-81
2022/11/21 01:27:34;;;;;;;76.80;31.40;;;;;;;-3.51;100.00;99565.75;5115798;28;20046;-80
2022/11/21 01:30:00;;;;;;;71.50;28.33;;;;;;;-3.38;100.00;99564.81;5096356;28;20042;-80
2022/11/21 01:32:25;;;;;;;72.32;31.42;;;;;;;-3.25;100.00;99567.06;5098894;28;20026;-80
2022/11/21 01:34:50;;;;;;;73.72;30.10;;;;;;;-3.14;100.00;99554.56;5121991;28;20432;-80
2022/11/21 01:37:16;;;;;;;69.97;30.13;;;;;;;-3.02;100.00;99550.41;5123858;28;20026;-79
2022/11/21 01:39:41;;;;;;;72.07;30.85;;;;;;;-2.97;100.00;99539.56;5106796;28;20110;-81
2022/11/21 01:42:08;;;;;;;79.47;33.58;;;;;;;-2.90;100.00;99530.28;5095807;28;20027;-80
2022/11/21 01:44:52;;;;;;;84.07;31.73;;;;;;;-2.76;100.00;99534.88;5115006;28;20030;-80
2022/11/21 01:47:18;;;;;;;71.88;30.92;;;;;;;-2.70;100.00;99533.19;5115561;28;20031;-81
2022/11/21 01:49:45;;;;;;;67.55;31.02;;;;;;;-2.66;100.00;99533.94;5134925;28;20333;-81
2022/11/21 01:52:13;;;;;;;73.88;30.90;;;;;;;-2.63;100.00;99541.47;5115256;28;20083;-80
2022/11/21 01:54:59;;;;;;;84.65;33.17;;;;;;;-2.61;100.00;99536.25;5134539;28;20032;-80
2022/11/21 01:57:27;;;;;;;73.13;29.50;;;;;;;-2.57;100.00;99539.78;5130579;28;20111;-81
2022/11/21 01:59:57;;;;;;;67.63;28.60;;;;;;;-2.52;100.00;99536.50;5124860;28;20028;-80
2022/11/21 02:02:26;;;;;;;68.43;28.05;;;;;;;-2.45;100.00;99530.81;5130726;28;20028;-80
2022/11/21 02:04:51;;;;;;;71.22;30.08;;;;;;;-2.38;100.00;99535.50;5131591;28;20048;-81
2022/11/21 02:07:19;;;;;;;64.75;27.00;;;;;;;-2.33;100.00;99518.22;5094972;28;20028;-81
2022/11/21 02:09:46;;;;;;;73.65;28.40;;;;;;;-2.26;100.00;99516.13;5106328;28;20484;-81
2022/11/21 02:12:22;;;;;;;71.25;28.58;;;;;;;-2.19;100.00;99520.78;5107549;28;20032;-80
2022/11/21 02:14:47;;;;;;;59.92;27.80;;;;;;;-2.11;100.00;99511.06;5113069;28;20023;-81
2022/11/21 02:17:12;;;;;;;63.67;26.88;;;;;;;-2.05;100.00;99500.97;5123303;28;20518;-80
2022/11/21 02:19:58;;;;;;;68.53;27.38;;;;;;;-2.02;100.00;99494.50;5123786;28;20407;-81
2022/11/21 02:22:31;;;;;;;64.55;25.17;;;;;;;-1.96;100.00;99504.00;5125597;28;20395;-81
2022/11/21 02:25:22;;;;;;;65.72;27.95;;;;;;;-1.95;100.00;99499.19;5124010;28;20066;-79
2022/11/21 02:27:49;;;;;;;49.75;24.52;;;;;;;-1.96;100.00;99484.41;5105805;28;20077;-81
2022/11/21 02:30:15;;;;;;;66.15;25.98;;;;;;;-1.90;100.00;99485.47;5089117;28;20034;-80
2022/11/21 02:32:48;;;;;;;63.50;24.92;;;;;;;-1.85;100.00;99481.41;5105600;28;20024;-81
2022/11/21 02:35:15;;;;;;;63.88;25.05;;;;;;;-1.80;100.00;99475.31;5092080;28;20506;-81
2022/11/21 02:37:42;;;;;;;59.35;24.25;;;;;;;-1.79;100.00;99471.28;5105690;28;20015;-80
2022/11/21 02:40:11;;;;;;;65.15;25.80;;;;;;;-1.74;100.00;99463.16;5121390;28;20031;-80
2022/11/21 02:42:42;;;;;;;53.35;23.23;;;;;;;-1.75;100.00;99458.78;5104042;28;20030;-80
2022/11/21 02:45:15;;;;;;;59.33;24.48;;;;;;;-1.71;100.00;99453.13;5123518;28;20075;-80
2022/11/21 02:47:41;;;;;;;54.58;24.30;;;;;;;-1.68;100.00;99450.25;5104511;28;20024;-80
2022/11/21 02:50:19;;;;;;;63.85;26.33;;;;;;;-1.65;100.00;99448.59;5103723;28;20100;-80
2022/11/21 02:52:44;;;;;;;51.47;21.80;;;;;;;-1.62;100.00;99453.34;5104102;28;20110;-81
2022/11/21 02:55:14;;;;;;;58.22;25.15;;;;;;;-1.61;100.00;99435.34;5123700;28;20043;-81
2022/11/21 02:57:40;;;;;;;58.15;26.55;;;;;;;-1.56;100.00;99434.81;5122694;28;20069;-80
2022/11/21 03:00:07;;;;;;;52.58;22.35;;;;;;;-1.49;100.00;99440.25;5123236;28;20015;-80
2022/11/21 03:02:32;;;;;;;53.85;22.55;;;;;;;-1.50;100.00;99440.69;5121987;28;20031;-81
2022/11/21 03:04:57;;;;;;;51.45;22.45;;;;;;;-1.44;100.00;99433.34;5121775;28;20066;-80
2022/11/21 03:07:23;;;;;;;50.55;22.92;;;;;;;-1.42;100.00;99431.72;5126593;28;20061;-80
2022/11/21 03:09:48;;;;;;;55.78;26.35;;;;;;;-1.42;100.00;99428.91;5109362;28;20028;-81
2022/11/21 03:12:14;;;;;;;61.95;25.38;;;;;;;-1.43;100.00;99416.13;5093821;28;20112;-81
2022/11/21 03:14:39;;;;;;;62.25;24.88;;;;;;;-1.37;100.00;99410.81;5088557;28;20105;-80
2022/11/21 03:17:04;;;;;;;60.50;25.55;;;;;;;-1.37;100.00;99419.22;5108436;28;20023;-81
2022/11/21 03:19:30;;;;;;;50.10;24.33;;;;;;;-1.39;100.00;99413.25;5119570;28;20030;-80
2022/11/21 03:21:55;;;;;;;59.90;25.67;;;;;;;-1.36;100.00;99410.34;5118061;28;20449;-80
2022/11/21 03:24:21;;;;;;;60.60;24.75;;;;;;;-1.35;100.00;99397.94;5117988;28;20055;-81
2022/11/21 03:26:46;;;;;;;65.22;26.00;;;;;;;-1.35;100.00;99389.53;5117503;28;20020;-81
2022/11/21 03:29:11;;;;;;;58.33;26.13;;;;;;;-1.35;100.00;99389.53;5116677;28;20031;-80
2022/11/21 03:31:37;;;;;;;52.97;26.23;;;;;;;-1.37;100.00;99392.00;5116843;28;20498;-80
2022/11/21 03:34:02;;;;;;;50.97;23.63;;;;;;;-1.37;100.00;99386.38;5099042;28;20472;-80
2022/11/21 03:36:28;;;;;;;57.88;23.20;;;;;;;-1.30;100.00;99379.81;5098683;28;20084;-81
2022/11/21 03:38:56;;;;;;;52.85;22.88;;;;;;;-1.36;100.00;99365.53;5116386;28;20023;-81
2022/11/21 03:41:28;;;;;;;58.80;23.90;;;;;;;-1.35;100.00;99360.72;5116983;28;20031;-80
2022/11/21 03:44:04;;;;;;;56.03;24.15;;;;;;;-1.33;100.00;99358.28;5117122;28;20076;-80
2022/11/21 03:46:31;;;;;;;55.67;24.10;;;;;;;-1.35;100.00;99347.50;5117269;28;20028;-80
2022/11/21 03:48:56;;;;;;;58.88;25.17;;;;;;;-1.38;100.00;99348.38;5082792;28;20031;-81
2022/11/21 03:51:22;;;;;;;50.13;22.02;;;;;;;-1.37;100.00;99338.75;5086493;28;20032;-81
2022/11/21 03:53:47;;;;;;;54.08;22.73;;;;;;;-1.35;100.00;99341.09;5103472;28;20032;-80
2022/11/21 03:56:13;;;;;;;57.08;23.40;;;;;;;-1.35;100.00;99339.09;5106391;28;20079;-80
2022/11/21 03:58:38;;;;;;;50.38;22.70;;;;;;;-1.34;100.00;99331.47;5127026;28;20061;-80
2022/11/21 04:01:04;;;;;;;64.35;23.33;;;;;;;-1.39;100.00;99329.19;5125869;28;20039;-81
2022/11/21 04:03:30;;;;;;;48.97;21.27;;;;;;;-1.41;100.00;99332.47;5123243;28;20103;-80
2022/11/21 04:05:55;;;;;;;52.50;22.80;;;;;;;-1.42;100.00;99330.88;5123053;28;20034;-80
2022/11/21 04:08:20;;;;;;;55.78;22.45;;;;;;;-1.37;100.00;99323.97;5103500;28;20047;-79
2022/11/21 04:10:46;;;;;;;59.45;24.30;;;;;;;-1.34;100.00;99323.06;5105704;28;20031;-80
2022/11/21 04:13:12;;;;;;;54.20;23.23;;;;;;;-1.35;100.00;99329.91;5106534;28;20480;-78
2022/11/21 04:15:37;;;;;;;52.55;24.42;;;;;;;-1.38;100.00;99320.38;5125432;28;20027;-80
2022/11/21 04:18:03;;;;;;;52.53;24.77;;;;;;;-1.41;100.00;99321.25;5126519;28;20035;-80
2022/11/21 04:20:28;;;;;;;59.15;22.20;;;;;;;-1.46;100.00;99312.56;5127142;28;20406;-80
2022/11/21 04:22:53;;;;;;;64.35;26.27;;;;;;;-1.50;100.00;99323.03;5125020;28;20023;-79
2022/11/21 04:25:19;;;;;;;61.58;24.10;;;;;;;-1.53;100.00;99312.72;5123893;28;20027;-80
2022/11/21 04:27:44;;;;;;;56.85;26.40;;;;;;;-1.59;100.00;99304.03;5124832;28;20425;-80
2022/11/21 04:30:10;;;;;;;52.38;23.13;;;;;;;-1.59;100.00;99307.63;5119064;28;20028;-80
2022/11/21 04:32:35;;;;;;;56.55;24.40;;;;;;;-1.63;100.00;99292.13;5115708;28;20035;-80
2022/11/21 04:35:01;;;;;;;57.38;24.70;;;;;;;-1.64;100.00;99290.56;5115633;28;20387;-80
2022/11/21 04:37:26;;;;;;;60.95;24.90;;;;;;;-1.61;100.00;99293.28;5118993;28;20069;-79
2022/11/21 04:39:52;;;;;;;64.82;25.10;;;;;;;-1.64;100.00;99276.56;5105139;28;20028;-80
2022/11/21 04:42:17;;;;;;;66.47;25.67;;;;;;;-1.58;100.00;99278.41;5125657;28;20031;-79
2022/11/21 04:44:42;;;;;;;55.00;22.52;;;;;;;-1.58;100.00;99272.03;5130376;28;20028;-79
2022/11/21 04:47:08;;;;;;;51.55;24.55;;;;;;;-1.51;100.00;99274.66;5132730;28;20031;-79
2022/11/21 04:49:33;;;;;;;60.38;25.85;;;;;;;-1.49;100.00;99263.00;5131132;28;20035;-79
2022/11/21 04:51:58;;;;;;;52.75;24.80;;;;;;;-1.45;100.00;99258.91;5111526;28;20549;-79
2022/11/21 04:54:24;;;;;;;59.58;24.45;;;;;;;-1.38;100.00;99264.34;5127696;28;20039;-79
2022/11/21 04:56:49;;;;;;;56.35;24.70;;;;;;;-1.29;100.00;99267.31;5089815;28;20034;-79
2022/11/21 04:59:14;;;;;;;53.88;25.05;;;;;;;-1.31;100.00;99264.16;5125982;28;20027;-79
2022/11/21 05:01:40;;;;;;;62.17;25.08;;;;;;;-1.31;100.00;99269.00;5126427;28;20032;-79
2022/11/21 05:04:05;;;;;;;54.40;25.85;;;;;;;-1.34;100.00;99267.03;5129620;28;20107;-79
2022/11/21 05:06:30;;;;;;;58.10;24.85;;;;;;;-1.34;100.00;99253.03;5131856;28;20046;-79
2022/11/21 05:08:56;;;;;;;57.03;25.55;;;;;;;-1.32;100.00;99247.78;5132710;28;20502;-79
2022/11/21 05:14:05;;;;;;;66.72;26.15;;;;;;;-1.23;100.00;99259.97;5129423;28;20089;-79
2022/11/21 05:16:34;;;;;;;62.58;24.48;;;;;;;-1.23;100.00;99245.16;5111425;28;20023;-79
2022/11/21 05:18:59;;;;;;;61.88;24.98;;;;;;;-1.20;100.00;99244.28;5132048;28;20035;-79
2022/11/21 05:21:24;;;;;;;52.65;23.77;;;;;;;-1.17;100.00;99247.00;5130294;28;20028;-79
2022/11/21 05:23:50;;;;;;;52.53;23.70;;;;;;;-1.16;100.00;99230.94;5133171;28;20087;-80
2022/11/21 05:26:15;;;;;;;53.13;24.35;;;;;;;-1.11;100.00;99229.66;5135335;28;20031;-79
2022/11/21 05:28:40;;;;;;;58.50;24.95;;;;;;;-1.08;100.00;99228.75;5133041;28;20024;-80
2022/11/21 05:31:07;;;;;;;51.70;22.15;;;;;;;-1.13;100.00;99218.88;5124350;28;20054;-81
2022/11/21 05:33:35;;;;;;;46.05;22.75;;;;;;;-1.10;100.00;99217.97;5108374;28;20069;-81
2022/11/21 05:36:00;;;;;;;55.33;22.80;;;;;;;-1.09;100.00;99215.97;5128685;28;20031;-79
2022/11/21 05:38:27;;;;;;;46.95;21.17;;;;;;;-1.04;100.00;99221.03;5136550;28;20043;-79
2022/11/21 05:40:52;;;;;;;59.28;24.50;;;;;;;-1.03;100.00;99209.41;5136995;28;20036;-79
2022/11/21 05:46:05;;;;;;;57.17;23.13;;;;;;;-0.91;100.00;99205.84;5099968;28;20431;-81
2022/11/21 05:48:35;;;;;;;56.72;23.80;;;;;;;-0.90;100.00;99201.81;5120310;28;20019;-81
2022/11/21 05:51:02;;;;;;;49.90;21.92;;;;;;;-0.88;100.00;99198.59;5118261;28;20023;-81
2022/11/21 05:53:28;;;;;;;48.88;22.23;;;;;;;-0.82;100.00;99183.59;5118821;28;20036;-83
2022/11/21 05:55:54;;;;;;;54.53;23.33;;;;;;;-0.83;100.00;99190.44;5101225;28;20030;-83
2022/11/21 05:58:19;;;;;;;54.05;22.00;;;;;;;-0.86;100.00;99188.50;5117543;28;20035;-81
2022/11/21 06:00:46;;;;;;;48.85;22.33;;;;;;;-0.87;100.00;99186.16;5117470;28;20106;-81
2022/11/21 06:03:30;;;;;;;51.83;22.95;;;;;;;-0.90;100.00;99179.41;5100952;28;20054;-81
2022/11/21 06:06:11;;;;;;;49.40;22.02;;;;;;;-0.87;100.00;99184.13;5088098;28;20038;-82
2022/11/21 06:08:38;;;;;;;51.65;21.23;;;;;;;-0.87;100.00;99172.13;5082674;28;20019;-82
2022/11/21 06:11:04;;;;;;;43.05;18.33;;;;;;;-0.90;100.00;99173.00;5082462;28;20115;-80
2022/11/21 06:13:32;;;;;;;42.85;20.23;;;;;;;-0.97;100.00;99168.41;5082087;28;20039;-83
2022/11/21 06:16:09;;;;;;;51.22;20.60;;;;;;;-1.04;100.00;99160.16;5098936;28;20031;-84
2022/11/21 06:18:39;;;;;;;49.45;20.63;;;;;;;-1.04;100.00;99177.00;5116847;28;20037;-80
2022/11/21 06:21:19;;;;;;;47.53;20.75;;;;;;;-1.03;100.00;99174.97;5098475;28;20040;-82
2022/11/21 06:23:45;;;;;;;42.45;19.77;;;;;;;-1.05;100.00;99166.22;5098266;28;20111;-81
2022/11/21 06:26:13;;;;;;;52.45;21.10;;;;;;;-1.05;100.00;99167.00;5114320;28;20031;-81
2022/11/21 06:28:39;;;;;;;42.90;20.27;;;;;;;-1.04;100.00;99162.19;5114352;28;20081;-81
2022/11/21 06:31:06;;;;;;;42.72;18.85;;;;;;;-1.02;100.00;99162.53;5115303;28;20066;-82
2022/11/21 06:33:32;;;;;;;51.42;21.55;;;;;;;-1.04;100.00;99162.19;5116943;28;20035;-79
2022/11/21 06:36:01;;;;;;;47.90;21.88;;;;;;;-1.01;100.00;99152.91;5123867;28;20089;-78
2022/11/21 06:38:26;;;;;;;47.03;21.02;;;;;;;-1.02;100.00;99165.34;5110956;28;20035;-79
2022/11/21 06:40:51;;;;;;;46.17;21.75;;;;;;;-0.98;100.00;99157.63;5087974;28;20027;-79
2022/11/21 06:43:17;;;;;;;45.47;20.15;;;;;;;-0.99;100.00;99156.81;5121886;28;20027;-79
2022/11/21 06:45:42;;;;;;;41.70;19.45;;;;;;;-1.00;100.00;99162.88;5124311;28;20104;-79
2022/11/21 06:48:07;;;;;;;54.05;21.65;;;;;;;-0.95;100.00;99173.53;5105059;28;20020;-78
2022/11/21 06:50:33;;;;;;;46.20;20.65;;;;;;;-0.97;100.00;99173.22;5085556;28;20073;-78
2022/11/21 06:52:59;;;;;;;40.90;18.92;;;;;;;-0.94;100.00;99172.31;5120603;28;20027;-79
2022/11/21 06:55:26;;;;;;;45.60;20.55;;;;;;;-0.92;100.00;99167.06;5102419;28;20041;-77
2022/11/21 06:58:00;;;;;;;47.00;20.55;;;;;;;-0.88;100.00;99162.94;5122499;28;20478;-78
2022/11/21 07:00:27;;;;;;;44.45;20.10;;;;;;;-0.82;100.00;99163.97;5120867;28;20036;-78
2022/11/21 07:02:52;;;;;;;43.20;20.23;;;;;;;-0.74;100.00;99161.72;5083204;28;20028;-78
2022/11/21 07:05:18;;;;;;;44.40;18.85;;;;;;;-0.71;100.00;99158.03;5119723;28;20028;-78
2022/11/21 07:07:43;;;;;;;45.95;19.98;;;;;;;-0.70;100.00;99157.59;5123073;28;20095;-79
2022/11/21 07:10:09;;;;;;;42.95;18.90;;;;;;;-0.65;100.00;99155.47;5122537;28;20031;-79
2022/11/21 07:15:18;;;;;;;53.40;21.55;;;;;;;-0.57;100.00;99163.22;5121381;28;20042;-80
2022/11/21 07:17:43;;;;;;;50.38;19.83;;;;;;;-0.53;100.00;99152.72;5115304;28;20388;-79
2022/11/21 07:20:10;;;;;;;50.40;20.00;;;;;;;-0.48;100.00;99163.38;5080320;28;20046;-80
2022/11/21 07:22:35;;;;;;;45.55;19.63;;;;;;;-0.43;100.00;99165.63;5092552;28;20400;-77
2022/11/21 07:25:00;;;;;;;50.75;20.83;;;;;;;-0.34;100.00;99159.38;5114375;28;20453;-76
2022/11/21 07:27:26;;;;;;;54.58;21.55;;;;;;;-0.31;100.00;99164.84;5115879;28;20028;-75
2022/11/21 07:29:51;;;;;;;49.17;20.13;;;;;;;-0.27;100.00;99165.53;5096672;28;20059;-77
2022/11/21 07:32:16;;;;;;;50.50;21.42;;;;;;;-0.24;100.00;99161.06;5111534;28;20039;-77
2022/11/21 07:34:42;;;;;;;51.13;21.65;;;;;;;-0.15;100.00;99168.81;5114476;28;20035;-82
2022/11/21 07:37:07;;;;;;;44.67;20.38;;;;;;;-0.04;100.00;99161.63;5097291;28;20318;-82
2022/11/21 07:39:33;;;;;;;50.35;20.08;;;;;;;0.05;100.00;99166.56;5098011;28;20035;-79
2022/11/21 07:41:58;;;;;;;42.33;20.38;;;;;;;0.16;100.00;99162.19;5114790;28;20032;-77
2022/11/21 07:44:23;;;;;;;47.00;19.42;;;;;;;0.30;100.00;99163.75;5115432;28;20032;-76
2022/11/21 07:46:53;;;;;;;45.35;21.05;;;;;;;0.44;100.00;99154.06;5114366;28;20027;-77
2022/11/21 07:49:18;;;;;;;45.38;18.70;;;;;;;0.55;100.00;99149.66;5115019;28;20034;-80
2022/11/21 07:51:43;;;;;;;47.67;19.65;;;;;;;0.69;100.00;99151.19;5096527;28;20024;-77
2022/11/21 07:54:09;;;;;;;43.40;19.65;;;;;;;0.82;100.00;99151.16;5114725;28;20497;-76
2022/11/21 07:56:34;;;;;;;55.00;20.75;;;;;;;0.92;100.00;99144.38;5114806;28;20059;-77
2022/11/21 07:58:59;;;;;;;43.60;19.27;;;;;;;1.07;100.00;99144.63;5114535;28;20035;-76
2022/11/21 08:01:25;;;;;;;39.80;17.60;;;;;;;1.21;100.00;99144.13;5096171;28;20035;-77
2022/11/21 08:03:50;;;;;;;38.83;17.23;;;;;;;1.34;100.00;99142.06;5096774;28;20035;-75
2022/11/21 08:06:16;;;;;;;40.03;18.15;;;;;;;1.42;100.00;99146.94;5114975;28;20036;-75
2022/11/21 08:08:41;;;;;;;39.17;15.23;;;;;;;1.47;100.00;99137.13;5114509;28;20102;-80
2022/11/21 08:11:06;;;;;;;36.35;15.70;;;;;;;1.59;100.00;99133.47;5096585;28;20035;-79
2022/11/21 08:13:33;;;;;;;36.90;17.13;;;;;;;1.75;100.00;99133.22;5115080;28;20031;-76
2022/11/21 08:15:58;;;;;;;59.80;18.77;;;;;;;1.84;100.00;99127.66;5114692;28;20023;-76
2022/11/21 08:18:23;;;;;;;49.22;18.02;;;;;;;1.97;100.00;99138.00;5115888;28;20076;-76
2022/11/21 08:20:49;;;;;;;40.92;15.35;;;;;;;2.06;100.00;99133.19;5115159;28;20371;-76
2022/11/21 08:23:14;;;;;;;35.40;15.30;;;;;;;2.06;100.00;99136.03;5114171;28;20040;-76
2022/11/21 08:25:41;;;;;;;29.45;13.82;;;;;;;2.13;100.00;99132.94;5114111;28;20104;-76
2022/11/21 08:28:07;;;;;;;35.17;14.88;;;;;;;2.16;100.00;99131.19;5114035;28;20038;-76
2022/11/21 08:30:33;;;;;;;30.92;13.05;;;;;;;2.23;100.00;99131.72;5114376;28;20030;-76
2022/11/21 08:32:59;;;;;;;28.10;13.48;;;;;;;2.34;100.00;99131.28;5096071;28;20035;-76
2022/11/21 08:35:25;;;;;;;29.98;14.00;;;;;;;2.40;100.00;99135.03;5113731;28;20365;-76
2022/11/21 08:37:56;;;;;;;29.02;14.00;;;;;;;2.44;100.00;99137.72;5113905;28;20053;-76
2022/11/21 08:40:21;;;;;;;37.55;13.98;;;;;;;2.44;100.00;99135.66;5096128;28;20024;-78
2022/11/21 08:42:46;;;;;;;27.58;12.80;;;;;;;2.52;100.00;99136.16;5114131;28;20028;-78
2022/11/21 08:45:12;;;;;;;25.67;12.70;;;;;;;2.59;100.00;99147.13;5095719;28;20456;-77
2022/11/21 08:47:37;;;;;;;33.67;14.35;;;;;;;2.59;100.00;99138.66;5095592;28;20479;-76
2022/11/21 08:50:03;;;;;;;26.02;12.77;;;;;;;2.65;100.00;99137.59;5095826;28;20088;-77
2022/11/21 08:52:29;;;;;;;30.27;12.27;;;;;;;2.79;100.00;99130.56;5095289;28;20039;-80
2022/11/21 08:54:55;;;;;;;28.10;12.68;;;;;;;2.90;100.00;99132.91;5114062;28;20042;-75
2022/11/21 08:57:21;;;;;;;25.27;13.05;;;;;;;2.99;100.00;99132.91;5127313;27;20026;-77
2022/11/21 08:59:46;;;;;;;29.88;13.65;;;;;;;3.14;100.00;99139.50;5120474;27;20031;-74
2022/11/21 09:02:12;;;;;;;28.13;12.05;;;;;;;3.26;100.00;99141.41;5138689;27;20027;-74
2022/11/21 09:04:37;;;;;;;29.42;12.55;;;;;;;3.34;100.00;99145.44;5120201;27;20073;-76
2022/11/21 09:07:03;;;;;;;24.92;12.13;;;;;;;3.41;100.00;99147.19;5113359;28;20382;-78
2022/11/21 09:09:29;;;;;;;24.30;12.15;;;;;;;3.44;100.00;99146.22;5120973;27;20035;-74
2022/11/21 09:11:54;;;;;;;21.40;11.30;;;;;;;3.50;100.00;99150.78;5086367;27;20472;-78
2022/11/21 09:19:48;;;;;;;19.75;10.68;;;;;;;3.62;100.00;99149.03;5138351;27;20042;-74
2022/11/21 09:22:13;;;;;;;21.63;11.65;;;;;;;3.67;100.00;99142.75;5138187;27;20027;-75
2022/11/21 09:24:38;;;;;;;24.35;11.93;;;;;;;3.73;100.00;99145.69;5138550;27;20019;-80
2022/11/21 09:27:04;;;;;;;19.55;11.27;;;;;;;3.71;100.00;99149.00;5119579;27;20110;-75
2022/11/21 09:29:29;;;;;;;25.20;11.75;;;;;;;3.72;100.00;99150.59;5138069;27;20031;-75
2022/11/21 09:31:56;;;;;;;20.55;11.13;;;;;;;3.72;100.00;99142.13;5137828;27;20046;-77
2022/11/21 09:34:21;;;;;;;26.05;10.82;;;;;;;3.73;100.00;99142.88;5137898;27;20015;-77
2022/11/21 09:36:46;;;;;;;22.23;10.88;;;;;;;3.71;100.00;99137.72;5136732;27;20087;-76
2022/11/21 09:39:12;;;;;;;22.30;10.25;;;;;;;3.71;100.00;99142.56;5137979;27;20491;-77
2022/11/21 09:41:56;;;;;;;21.63;11.88;;;;;;;3.67;100.00;99142.75;5137198;27;20109;-78
2022/11/21 09:44:53;;;;;;;23.70;10.45;;;;;;;3.66;100.00;99146.81;5096830;28;20035;-76
2022/11/21 09:47:21;;;;;;;18.98;11.40;;;;;;;3.73;100.00;99145.69;5088003;28;20041;-78
2022/11/21 09:49:56;;;;;;;20.23;11.15;;;;;;;3.79;100.00;99146.63;5099034;28;20140;-77
2022/11/21 09:52:24;;;;;;;17.77;9.48;;;;;;;3.87;100.00;99145.09;5099113;28;20028;-77
2022/11/21 09:54:55;;;;;;;21.80;9.32;;;;;;;3.94;100.00;99150.38;5098744;28;20027;-78
2022/11/21 09:57:22;;;;;;;20.40;9.32;;;;;;;3.99;100.00;99153.34;5098398;28;20034;-82
2022/11/21 09:59:48;;;;;;;24.25;10.35;;;;;;;4.06;100.00;99152.25;5117001;28;20373;-78
2022/11/21 10:02:15;;;;;;;20.80;10.98;;;;;;;4.14;100.00;99158.31;5116771;28;20072;-74
2022/11/21 10:04:41;;;;;;;21.20;10.05;;;;;;;4.27;100.00;99153.22;5098793;28;20055;-76
2022/11/21 10:07:20;;;;;;;21.58;10.48;;;;;;;4.40;100.00;99142.50;5116495;28;20023;-77
2022/11/21 10:09:58;;;;;;;24.17;12.20;;;;;;;4.69;100.00;99150.34;5078782;28;20039;-76
2022/11/21 10:12:42;;;;;;;22.27;9.40;;;;;;;4.94;100.00;99142.16;5116578;28;20472;-79
2022/11/21 10:15:07;;;;;;;16.02;9.00;;;;;;;5.15;100.00;99128.16;5098132;28;20024;-80
2022/11/21 10:17:57;;;;;;;19.80;9.13;;;;;;;5.36;100.00;99132.69;5116751;28;20102;-77
2022/11/21 10:21:00;;;;;;;16.35;7.40;;;;;;;5.63;100.00;99132.44;5116881;28;20024;-78
2022/11/21 10:23:50;;;;;;;17.67;8.18;;;;;;;5.78;100.00;99133.22;5115833;28;20092;-84
2022/11/21 10:26:32;;;;;;;23.90;8.73;;;;;;;5.96;100.00;99126.53;5098066;28;20023;-78
2022/11/21 10:29:08;;;;;;;;;;;;;;;6.20;100.00;99123.56;5117055;28;20420;-81
2022/11/21 10:31:37;;;;;;;15.60;7.97;;;;;;;6.52;100.00;99121.78;5098424;28;19908;-76
2022/11/21 10:34:09;;;;;;;17.15;9.35;;;;;;;6.89;100.00;99122.00;5116093;28;20031;-79
2022/11/21 10:36:37;;;;;;;17.35;8.10;;;;;;;7.08;100.00;99120.44;5097753;28;20065;-76
2022/11/21 10:39:12;;;;;;;22.63;8.25;;;;;;;7.25;100.00;99127.13;5097852;28;20556;-77
2022/11/21 10:41:46;;;;;;;18.27;7.70;;;;;;;7.32;100.00;99131.59;5116266;28;20110;-82
2022/11/21 10:47:28;;;;;;;16.10;8.63;;;;;;;7.53;100.00;99133.09;5101854;28;20468;-79
2022/11/21 10:50:09;;;;;;;12.57;6.82;;;;;;;7.58;100.00;99120.22;5067245;28;20033;-80
2022/11/21 10:52:40;;;;;;;43.80;10.20;;;;;;;7.54;100.00;99123.28;5114966;28;20055;-75
2022/11/21 10:55:11;;;;;;;25.10;8.17;;;;;;;7.43;100.00;99126.78;5117764;27;20031;-77
2022/11/21 10:57:40;;;;;;;22.13;8.45;;;;;;;7.36;100.00;99135.78;5136178;27;20029;-78
2022/11/21 11:00:12;;;;;;;15.13;6.47;;;;;;;7.31;100.00;99127.97;5117956;27;20031;-75
2022/11/21 11:02:59;;;;;;;31.27;7.47;;;;;;;7.27;100.00;99126.63;5127729;27;20027;-76
2022/11/21 11:05:28;;;;;;;27.00;8.23;;;;;;;7.18;100.00;99124.69;5107739;28;20036;-76
2022/11/21 11:08:06;;;;;;;20.40;7.25;;;;;;;7.13;100.00;99124.66;5115882;28;20027;-75
2022/11/21 11:10:37;;;;;;;36.55;7.72;;;;;;;7.01;100.00;99133.03;5115685;28;20027;-77
2022/11/21 11:13:33;;;;;;;26.05;7.95;;;;;;;6.95;100.00;99125.72;5115638;28;20460;-77
2022/11/21 11:16:14;;;;;;;19.80;7.40;;;;;;;6.87;100.00;99133.09;5116334;28;20041;-77
2022/11/21 11:19:02;;;;;;;16.33;6.68;;;;;;;6.77;100.00;99128.84;5116019;28;20038;-77
2022/11/21 11:21:43;;;;;;;18.60;8.57;;;;;;;6.70;100.00;99132.06;5113698;28;20479;-79
2022/11/21 11:24:08;;;;;;;15.90;6.60;;;;;;;6.64;100.00;99129.16;5119157;27;20023;-77
2022/11/21 11:26:55;;;;;;;17.40;7.85;;;;;;;6.64;100.00;99132.78;5117393;27;20031;-74
2022/11/21 11:29:26;;;;;;;25.05;8.75;;;;;;;6.65;100.00;99142.88;5135488;27;20055;-77
2022/11/21 11:31:58;;;;;;;37.03;9.70;;;;;;;6.66;100.00;99135.13;5118086;27;20019;-76